createdAt,value
2019-06-10T00:02:10.895Z,100452.48
2019-06-10T00:04:41.695Z,100455.26
2019-06-10T00:07:12.444Z,100458.86
2019-06-10T00:09:43.546Z,100451.96
2019-06-10T00:12:14.526Z,100453.84
2019-06-10T00:14:45.308Z,100452.40
2019-06-10T00:17:16.249Z,100451.67
2019-06-10T00:19:47.194Z,100456.19
2019-06-10T00:22:17.866Z,100456.92
2019-06-10T00:24:48.558Z,100455.67
2019-06-10T00:27:21.595Z,100453.23
2019-06-10T00:29:52.319Z,100449.57
2019-06-10T00:32:23.349Z,100446.13
2019-06-10T00:34:54.308Z,100445.40
2019-06-10T00:37:25.346Z,100445.03
2019-06-10T00:39:56.280Z,100439.88
2019-06-10T00:42:27.088Z,100434.28
2019-06-10T00:44:58.009Z,100433.03
2019-06-10T00:47:30.794Z,100438.13
2019-06-10T00:50:03.961Z,100430.20
2019-06-10T00:52:34.495Z,100426.27
2019-06-10T00:55:07.827Z,100428.62
2019-06-10T00:57:41.710Z,100428.01
2019-06-10T01:00:24.908Z,100419.54
2019-06-10T01:02:45.468Z,100421.73
2019-06-10T01:05:16.178Z,100421.01
2019-06-10T01:07:47.117Z,100416.99
2019-06-10T01:10:18.011Z,100406.50
2019-06-10T01:12:51.182Z,100405.28
2019-06-10T01:15:21.886Z,100401.12
2019-06-10T01:17:52.546Z,100389.27
2019-06-10T01:20:23.582Z,100385.63
2019-06-10T01:22:54.594Z,100395.27
2019-06-10T01:25:25.416Z,100385.46
2019-06-10T01:27:56.421Z,100383.44
2019-06-10T01:30:27.447Z,100376.66
2019-06-10T01:32:58.432Z,100376.97
2019-06-10T01:35:30.575Z,100375.91
2019-06-10T01:38:02.340Z,100366.02
2019-06-10T01:40:33.010Z,100366.46
2019-06-10T01:43:03.981Z,100368.73
2019-06-10T01:45:34.658Z,100360.11
2019-06-10T01:48:05.348Z,100365.95
2019-06-10T01:50:36.296Z,100366.23
2019-06-10T01:53:07.342Z,100368.42
2019-06-10T01:55:38.286Z,100361.47
2019-06-10T01:58:10.670Z,100348.95
2019-06-10T02:00:43.035Z,100350.72
2019-06-10T02:03:17.084Z,100346.28
2019-06-10T02:05:51.463Z,100351.23
2019-06-10T02:08:22.185Z,100342.80
2019-06-10T02:10:53.072Z,100337.36
2019-06-10T02:13:32.601Z,100330.01
2019-06-10T02:16:05.301Z,100332.02
2019-06-10T02:18:36.262Z,100331.36
2019-06-10T02:21:07.251Z,100325.95
2019-06-10T02:23:37.944Z,100320.98
2019-06-10T02:26:11.314Z,100323.48
2019-06-10T02:28:41.278Z,100314.87
2019-06-10T02:31:15.159Z,100309.67
2019-06-10T02:33:44.856Z,100306.38
2019-06-10T02:36:19.383Z,100307.97
2019-06-10T02:38:48.450Z,100319.63
2019-06-10T02:41:24.062Z,100299.60
2019-06-10T02:43:53.360Z,100298.16
2019-06-10T02:46:31.054Z,100288.92
2019-06-10T02:49:16.441Z,100293.05
2019-06-10T02:51:31.572Z,100290.81
2019-06-10T02:54:04.678Z,100285.21
2019-06-10T02:56:36.394Z,100290.55
2019-06-10T02:59:07.550Z,100294.09
2019-06-10T03:01:38.416Z,100293.83
2019-06-10T03:04:09.385Z,100296.70
2019-06-10T03:06:44.020Z,100294.75
2019-06-10T03:09:14.110Z,100296.94
2019-06-10T03:11:45.472Z,100294.09
2019-06-10T03:14:17.725Z,100285.78
2019-06-10T03:16:52.593Z,100269.11
2019-06-10T03:19:39.660Z,100262.18
2019-06-10T03:21:55.116Z,100268.48
2019-06-10T03:24:25.801Z,100262.52
2019-06-10T03:26:56.780Z,100258.45
2019-06-10T03:29:28.225Z,100267.77
2019-06-10T03:31:59.312Z,100265.23
2019-06-10T03:34:40.148Z,100260.38
2019-06-10T03:37:02.654Z,100269.43
2019-06-10T03:39:33.358Z,100268.16
2019-06-10T03:42:04.033Z,100266.10
2019-06-10T03:44:34.984Z,100269.25
2019-06-10T03:47:06.009Z,100262.39
2019-06-10T03:49:49.176Z,100262.65
2019-06-10T03:52:09.345Z,100262.47
2019-06-10T03:54:43.078Z,100242.69
2019-06-10T03:57:12.978Z,100263.87
2019-06-10T03:59:43.948Z,100261.11
2019-06-10T04:02:14.943Z,100262.29
2019-06-10T04:04:46.002Z,100257.69
2019-06-10T04:07:18.077Z,100267.80
2019-06-10T04:09:49.235Z,100270.57
2019-06-10T04:12:19.913Z,100271.45
2019-06-10T04:14:52.175Z,100263.67
2019-06-10T04:17:25.120Z,100263.78
2019-06-10T04:20:07.968Z,100256.21
2019-06-10T04:22:28.442Z,100260.93
2019-06-10T04:25:02.812Z,100259.05
2019-06-10T04:27:33.422Z,100254.83
2019-06-10T04:30:05.693Z,100249.36
2019-06-10T04:32:36.380Z,100249.16
2019-06-10T04:35:07.394Z,100246.27
2019-06-10T04:37:38.067Z,100242.56
2019-06-10T04:40:10.006Z,100247.02
2019-06-10T04:42:43.354Z,100245.47
2019-06-10T04:45:13.652Z,100244.34
2019-06-10T04:47:44.583Z,100246.30
2019-06-10T04:50:24.805Z,100243.88
2019-06-10T04:52:47.930Z,100248.87
2019-06-10T04:55:18.910Z,100235.59
2019-06-10T04:57:52.013Z,100233.36
2019-06-10T05:00:25.459Z,100231.92
2019-06-10T05:02:55.659Z,100238.99
2019-06-10T05:05:27.259Z,100232.91
2019-06-10T05:07:59.302Z,100239.27
2019-06-10T05:10:30.019Z,100233.50
2019-06-10T05:13:02.996Z,100232.31
2019-06-10T05:15:34.912Z,100234.53
2019-06-10T05:18:06.122Z,100235.30
2019-06-10T05:20:51.996Z,100230.43
2019-06-10T05:23:09.909Z,100223.94
2019-06-10T05:25:42.751Z,100214.46
2019-06-10T05:28:13.597Z,100212.28
2019-06-10T05:30:44.575Z,100213.16
2019-06-10T05:33:15.520Z,100211.44
2019-06-10T05:35:46.186Z,100212.33
2019-06-10T05:38:17.508Z,100210.12
2019-06-10T05:40:48.468Z,100205.91
2019-06-10T05:43:19.167Z,100166.88
2019-06-10T05:45:50.138Z,100205.97
2019-06-10T05:48:22.648Z,100204.61
2019-06-10T05:51:02.230Z,100203.27
2019-06-10T05:53:27.642Z,100199.47
2019-06-10T05:55:58.981Z,100203.27
2019-06-10T05:58:29.645Z,100192.53
2019-06-10T06:01:02.725Z,100189.09
2019-06-10T06:03:36.591Z,100185.63
2019-06-10T06:06:06.092Z,100190.80
2019-06-10T06:08:37.545Z,100188.36
2019-06-10T06:11:08.777Z,100192.19
2019-06-10T06:13:39.727Z,100196.21
2019-06-10T06:16:12.616Z,100191.05
2019-06-10T06:18:42.786Z,100180.36
2019-06-10T06:21:25.487Z,100185.84
2019-06-10T06:23:46.135Z,100189.66
2019-06-10T06:26:16.870Z,100194.23
2019-06-10T06:28:47.559Z,100189.39
2019-06-10T06:31:18.273Z,100188.84
2019-06-10T06:33:49.225Z,100187.45
2019-06-10T06:36:22.395Z,100187.67
2019-06-10T06:38:53.244Z,100181.11
2019-06-10T06:41:24.070Z,100189.66
2019-06-10T06:43:54.806Z,100185.55
2019-06-10T06:46:25.785Z,100179.82
2019-06-10T06:48:56.496Z,100143.95
2019-06-10T06:51:37.965Z,100171.08
2019-06-10T06:54:00.088Z,100182.27
2019-06-10T06:56:34.511Z,100176.53
2019-06-10T06:59:03.454Z,100180.33
2019-06-10T07:01:36.458Z,100182.49
2019-06-10T07:04:07.738Z,100179.50
2019-06-10T07:06:42.993Z,100177.55
2019-06-10T07:09:13.709Z,100175.97
2019-06-10T07:11:46.555Z,100172.98
2019-06-10T07:14:20.252Z,100181.64
2019-06-10T07:16:52.950Z,100175.39
2019-06-10T07:19:23.279Z,100165.87
2019-06-10T07:22:08.865Z,100158.77
2019-06-10T07:24:26.770Z,100145.92
2019-06-10T07:26:57.463Z,100133.59
2019-06-10T07:29:28.440Z,100156.55
2019-06-10T07:31:59.452Z,100150.80
2019-06-10T07:34:32.570Z,100159.55
2019-06-10T07:37:03.153Z,100154.84
2019-06-10T07:39:36.453Z,100158.47
2019-06-10T07:42:06.845Z,100155.45
2019-06-10T07:44:39.075Z,100171.89
2019-06-10T07:47:10.132Z,100167.48
2019-06-10T07:49:43.839Z,100156.55
2019-06-10T07:52:19.380Z,100157.48
2019-06-10T07:54:47.110Z,100130.17
2019-06-10T07:57:18.065Z,100153.95
2019-06-10T07:59:48.819Z,100149.88
2019-06-10T08:02:19.801Z,100159.51
2019-06-10T08:04:53.895Z,100163.13
2019-06-10T08:07:24.434Z,100159.37
2019-06-10T08:09:55.476Z,100157.05
2019-06-10T08:12:26.413Z,100160.00
2019-06-10T08:14:57.578Z,100162.64
2019-06-10T08:17:28.595Z,100152.17
2019-06-10T08:20:02.334Z,100146.05
2019-06-10T08:22:37.444Z,100146.61
2019-06-10T08:25:08.787Z,100145.91
2019-06-10T08:27:41.319Z,100142.74
2019-06-10T08:30:22.221Z,100139.11
2019-06-10T08:32:46.863Z,100137.27
2019-06-10T08:35:18.844Z,100140.70
2019-06-10T08:37:49.846Z,100143.48
2019-06-10T08:40:22.852Z,100139.59
2019-06-10T08:42:53.893Z,100138.01
2019-06-10T08:45:25.013Z,100137.52
2019-06-10T08:47:56.015Z,100132.84
2019-06-10T08:50:27.020Z,100128.02
2019-06-10T08:53:10.347Z,100129.70
2019-06-10T08:55:31.228Z,100132.19
2019-06-10T08:58:04.513Z,100136.05
2019-06-10T09:00:37.390Z,100141.81
2019-06-10T09:03:09.605Z,100141.53
2019-06-10T09:05:41.944Z,100144.80
2019-06-10T09:08:13.151Z,100146.73
2019-06-10T09:10:49.119Z,100150.82
2019-06-10T09:13:16.633Z,100151.63
2019-06-10T09:16:03.722Z,100149.98
2019-06-10T09:18:20.182Z,100140.64
2019-06-10T09:20:55.698Z,100143.05
2019-06-10T09:23:25.771Z,100154.84
2019-06-10T09:25:57.856Z,100157.83
2019-06-10T09:28:29.964Z,100159.03
2019-06-10T09:31:03.625Z,100163.37
2019-06-10T09:33:33.359Z,100161.23
2019-06-10T09:36:05.901Z,100160.96
2019-06-10T09:38:36.941Z,100161.23
2019-06-10T09:41:07.682Z,100158.73
2019-06-10T09:43:40.508Z,100162.84
2019-06-10T09:46:12.665Z,100176.01
2019-06-10T09:48:48.563Z,100180.63
2019-06-10T09:51:17.381Z,100188.84
2019-06-10T09:53:56.360Z,100195.67
2019-06-10T09:56:22.835Z,100196.70
2019-06-10T09:58:55.262Z,100199.16
2019-06-10T10:01:25.611Z,100203.47
2019-06-10T10:04:00.006Z,100208.11
2019-06-10T10:06:29.000Z,100209.43
2019-06-10T10:09:03.223Z,100205.91
2019-06-10T10:11:33.603Z,100202.86
2019-06-10T10:14:08.459Z,100188.92
2019-06-10T10:16:37.653Z,100186.47
2019-06-10T10:19:08.613Z,100170.10
2019-06-10T10:21:47.725Z,100168.97
2019-06-10T10:24:15.878Z,100164.64
2019-06-10T10:26:57.359Z,100143.06
2019-06-10T10:29:25.244Z,100123.35
2019-06-10T10:31:56.250Z,100125.27
2019-06-10T10:34:26.912Z,100138.97
2019-06-10T10:36:57.625Z,100134.59
2019-06-10T10:39:28.555Z,100123.42
2019-06-10T10:42:00.274Z,100118.23
2019-06-10T10:44:31.143Z,100101.55
2019-06-10T10:47:04.859Z,100140.12
2019-06-10T10:49:35.574Z,100147.21
2019-06-10T10:52:06.317Z,100156.78
2019-06-10T10:54:37.051Z,100159.27
2019-06-10T10:57:08.921Z,100162.80
2019-06-10T10:59:39.890Z,100175.59
2019-06-10T11:02:12.675Z,100174.28
2019-06-10T11:04:48.167Z,100161.95
2019-06-10T11:07:19.137Z,100158.95
2019-06-10T11:09:50.923Z,100167.18
2019-06-10T11:12:24.463Z,100165.03
2019-06-10T11:15:00.488Z,100161.22
2019-06-10T11:17:28.170Z,100165.06
2019-06-10T11:19:59.083Z,100158.49
2019-06-10T11:22:29.798Z,100150.82
2019-06-10T11:25:00.522Z,100149.41
2019-06-10T11:27:33.146Z,100125.08
2019-06-10T11:30:04.931Z,100113.09
2019-06-10T11:32:35.615Z,100108.99
2019-06-10T11:35:06.976Z,100096.14
2019-06-10T11:37:38.094Z,100079.19
2019-06-10T11:40:09.344Z,100078.28
2019-06-10T11:42:43.576Z,100071.41
2019-06-10T11:45:13.716Z,100069.16
2019-06-10T11:47:44.673Z,100062.62
2019-06-10T11:50:16.947Z,100064.61
2019-06-10T11:52:47.646Z,100058.55
2019-06-10T11:55:19.367Z,100067.03
2019-06-10T11:57:51.008Z,100061.86
2019-06-10T12:00:25.655Z,100055.78
2019-06-10T12:02:58.561Z,100041.83
2019-06-10T12:05:28.875Z,100044.25
2019-06-10T12:08:01.874Z,100037.45
2019-06-10T12:10:32.995Z,100032.97
2019-06-10T12:13:07.342Z,100029.38
2019-06-10T12:16:13.835Z,100031.20
2019-06-10T12:18:09.830Z,100028.16
2019-06-10T12:20:42.712Z,100032.00
2019-06-10T12:23:13.518Z,100024.82
2019-06-10T12:25:47.818Z,99997.97
2019-06-10T12:28:16.854Z,100022.30
2019-06-10T12:30:47.859Z,100022.30
2019-06-10T12:33:21.459Z,100014.29
2019-06-10T12:35:53.715Z,100011.91
2019-06-10T12:38:24.700Z,100023.36
2019-06-10T12:40:58.471Z,100018.59
2019-06-10T12:43:28.264Z,100012.47
2019-06-10T12:45:59.459Z,100005.31
2019-06-10T12:48:34.169Z,99998.67
2019-06-10T12:51:08.718Z,99992.84
2019-06-10T12:53:38.143Z,99987.53
2019-06-10T12:56:11.390Z,99998.77
2019-06-10T12:58:43.197Z,99988.98
2019-06-10T13:01:15.685Z,99984.14
2019-06-10T13:03:46.359Z,99987.55
2019-06-10T13:06:18.192Z,99973.83
2019-06-10T13:08:49.434Z,99971.47
2019-06-10T13:11:20.401Z,99968.55
2019-06-10T13:13:53.089Z,99974.24
2019-06-10T13:16:23.922Z,99970.81
2019-06-10T13:18:55.687Z,99975.80
2019-06-10T13:21:26.740Z,99983.48
2019-06-10T13:23:57.505Z,99979.45
2019-06-10T13:26:28.488Z,99985.17
2019-06-10T13:28:59.470Z,99988.92
2019-06-10T13:31:32.985Z,99983.32
2019-06-10T13:34:08.760Z,99989.55
2019-06-10T13:36:35.627Z,99987.17
2019-06-10T13:39:10.533Z,99985.41
2019-06-10T13:41:43.888Z,99982.73
2019-06-10T13:44:16.508Z,99964.84
2019-06-10T13:46:47.406Z,99961.84
2019-06-10T13:49:18.669Z,99956.56
2019-06-10T13:51:49.606Z,99954.59
2019-06-10T13:54:22.421Z,99943.76
2019-06-10T13:56:52.921Z,99941.13
2019-06-10T13:59:23.889Z,99933.72
2019-06-10T14:01:56.253Z,99933.16
2019-06-10T14:04:27.233Z,99930.31
2019-06-10T14:06:57.905Z,99923.50
2019-06-10T14:09:28.853Z,99922.60
2019-06-10T14:11:59.831Z,99920.72
2019-06-10T14:14:33.160Z,99920.88
2019-06-10T14:17:03.864Z,99917.30
2019-06-10T14:19:34.655Z,99919.23
2019-06-10T14:22:07.877Z,99927.22
2019-06-10T14:24:38.015Z,99916.48
2019-06-10T14:27:09.227Z,99909.87
2019-06-10T14:29:42.053Z,99914.45
2019-06-10T14:32:14.423Z,99913.70
2019-06-10T14:34:45.473Z,99911.00
2019-06-10T14:37:31.864Z,99912.33
2019-06-10T14:39:48.931Z,99913.63
2019-06-10T14:42:19.975Z,99911.13
2019-06-10T14:44:52.667Z,99908.94
2019-06-10T14:47:23.364Z,99905.25
2019-06-10T14:49:54.353Z,99898.74
2019-06-10T14:52:25.004Z,99895.66
2019-06-10T14:54:57.602Z,99891.03
2019-06-10T14:57:28.719Z,99892.08
2019-06-10T14:59:59.404Z,99890.48
2019-06-10T15:02:33.297Z,99884.95
2019-06-10T15:05:03.159Z,99883.48
2019-06-10T15:07:34.121Z,99877.72
2019-06-10T15:10:07.630Z,99875.21
2019-06-10T15:12:38.375Z,99874.94
2019-06-10T15:15:10.254Z,99870.28
2019-06-10T15:17:43.115Z,99863.69
2019-06-10T15:20:13.954Z,99857.67
2019-06-10T15:22:44.767Z,99857.88
2019-06-10T15:25:17.155Z,99850.27
2019-06-10T15:27:48.340Z,99846.25
2019-06-10T15:30:23.467Z,99846.30
2019-06-10T15:32:52.515Z,99835.23
2019-06-10T15:35:24.498Z,99835.33
2019-06-10T15:37:55.708Z,99841.63
2019-06-10T15:40:26.715Z,99827.89
2019-06-10T15:42:57.685Z,99828.08
2019-06-10T15:45:28.650Z,99830.77
2019-06-10T15:48:02.501Z,99828.81
2019-06-10T15:50:32.872Z,99808.89
2019-06-10T15:53:03.580Z,99796.05
2019-06-10T15:56:05.867Z,99817.05
2019-06-10T15:58:07.212Z,99819.22
2019-06-10T16:00:38.252Z,99810.43
2019-06-10T16:03:09.329Z,99804.64
2019-06-10T16:05:42.636Z,99798.60
2019-06-10T16:08:15.557Z,99803.63
2019-06-10T16:10:45.949Z,99798.42
2019-06-10T16:13:16.968Z,99792.84
2019-06-10T16:15:47.967Z,99787.02
2019-06-10T16:18:20.085Z,99769.91
2019-06-10T16:20:52.756Z,99772.98
2019-06-10T16:23:26.512Z,99772.44
2019-06-10T16:25:56.182Z,99772.16
2019-06-10T16:28:26.894Z,99770.34
2019-06-10T16:30:57.713Z,99772.94
2019-06-10T16:33:28.672Z,99767.01
2019-06-10T16:35:59.619Z,99767.94
2019-06-10T16:38:32.632Z,99771.13
2019-06-10T16:41:03.693Z,99778.80
2019-06-10T16:43:34.755Z,99785.17
2019-06-10T16:46:05.448Z,99776.83
2019-06-10T16:48:36.420Z,99765.30
2019-06-10T16:51:07.392Z,99763.33
2019-06-10T16:53:38.403Z,99761.34
2019-06-10T16:56:09.108Z,99757.47
2019-06-10T16:58:40.135Z,99755.05
2019-06-10T17:01:12.447Z,99754.81
2019-06-10T17:03:43.637Z,99747.20
2019-06-10T17:06:15.482Z,99752.69
2019-06-10T17:08:46.383Z,99758.49
2019-06-10T17:11:18.762Z,99760.59
2019-06-10T17:13:49.719Z,99753.20
2019-06-10T17:16:23.275Z,99763.38
2019-06-10T17:18:54.552Z,99769.77
2019-06-10T17:21:29.632Z,99772.92
2019-06-10T17:23:57.992Z,99775.78
2019-06-10T17:26:33.388Z,99776.38
2019-06-10T17:29:02.861Z,99777.27
2019-06-10T17:31:35.361Z,99781.43
2019-06-10T17:34:06.339Z,99794.80
2019-06-10T17:36:37.415Z,99790.19
2019-06-10T17:39:12.342Z,99783.30
2019-06-10T17:41:42.826Z,99772.88
2019-06-10T17:44:13.866Z,99770.47
2019-06-10T17:46:45.512Z,99776.27
2019-06-10T17:49:16.222Z,99766.13
2019-06-10T17:51:47.166Z,99761.28
2019-06-10T17:54:17.845Z,99748.69
2019-06-10T17:56:48.821Z,99756.13
2019-06-10T17:59:22.481Z,99762.47
2019-06-10T18:01:52.894Z,99757.55
2019-06-10T18:04:24.028Z,99769.39
2019-06-10T18:06:56.059Z,99771.87
2019-06-10T18:09:27.860Z,99782.63
2019-06-10T18:11:58.881Z,99779.42
2019-06-10T18:14:30.749Z,99773.73
2019-06-10T18:17:05.203Z,99776.23
2019-06-10T18:19:37.389Z,99773.81
2019-06-10T18:22:08.592Z,99774.15
2019-06-10T18:24:39.526Z,99777.47
2019-06-10T18:27:12.601Z,99766.59
2019-06-10T18:29:43.845Z,99765.80
2019-06-10T18:32:14.513Z,99772.11
2019-06-10T18:34:45.459Z,99793.48
2019-06-10T18:37:16.150Z,99808.28
2019-06-10T18:39:47.084Z,99810.50
2019-06-10T18:42:18.345Z,99811.02
2019-06-10T18:44:49.330Z,99799.00
2019-06-10T18:47:22.416Z,99790.80
2019-06-10T18:49:53.247Z,99771.41
2019-06-10T18:52:24.419Z,99752.83
2019-06-10T18:54:55.416Z,99746.34
2019-06-10T18:57:26.346Z,99737.95
2019-06-10T18:59:57.332Z,99728.13
2019-06-10T19:02:28.388Z,99730.08
2019-06-10T19:04:59.756Z,99737.47
2019-06-10T19:07:33.851Z,99738.61
2019-06-10T19:10:05.879Z,99721.13
2019-06-10T19:12:39.683Z,99714.33
2019-06-10T19:15:12.048Z,99724.47
2019-06-10T19:17:44.455Z,99724.23
2019-06-10T19:20:17.413Z,99732.17
2019-06-10T19:22:48.492Z,99728.07
2019-06-10T19:25:19.581Z,99725.92
2019-06-10T19:27:52.851Z,99715.23
2019-06-10T19:30:23.470Z,99711.97
2019-06-10T19:32:54.455Z,99715.59
2019-06-10T19:35:25.422Z,99738.53
2019-06-10T19:37:56.167Z,99712.07
2019-06-10T19:40:27.163Z,99725.12
2019-06-10T19:42:57.936Z,99715.05
2019-06-10T19:45:28.668Z,99708.77
2019-06-10T19:47:59.339Z,99698.41
2019-06-10T19:50:32.630Z,99686.70
2019-06-10T19:53:02.756Z,99675.48
2019-06-10T19:55:35.143Z,99670.61
2019-06-10T19:58:05.869Z,99672.52
2019-06-10T20:00:37.493Z,99658.07
2019-06-10T20:03:08.166Z,99668.99
2019-06-10T20:05:40.037Z,99684.55
2019-06-10T20:08:12.129Z,99676.93
2019-06-10T20:10:42.902Z,99686.23
2019-06-10T20:13:13.878Z,99682.39
2019-06-10T20:15:46.672Z,99673.13
2019-06-10T20:18:17.258Z,99671.20
2019-06-10T20:20:49.025Z,99684.31
2019-06-10T20:23:20.178Z,99709.95
2019-06-10T20:25:52.760Z,99729.58
2019-06-10T20:28:23.847Z,99757.11
2019-06-10T20:30:55.761Z,99768.57
2019-06-10T20:33:38.499Z,99786.84
2019-06-10T20:36:20.898Z,99798.57
2019-06-10T20:38:46.391Z,99802.66
2019-06-10T20:41:14.802Z,99792.80
2019-06-10T20:43:47.097Z,99793.86
2019-06-10T20:46:18.050Z,99805.73
2019-06-10T20:48:51.082Z,99778.54
2019-06-10T20:51:22.672Z,99765.84
2019-06-10T20:53:53.561Z,99760.92
2019-06-10T20:56:24.237Z,99770.25
2019-06-10T20:58:55.238Z,99781.75
2019-06-10T21:01:26.060Z,99784.45
2019-06-10T21:03:56.773Z,99781.47
2019-06-10T21:06:32.544Z,99794.55
2019-06-10T21:09:04.423Z,99789.45
2019-06-10T21:11:37.180Z,99809.04
2019-06-10T21:14:08.224Z,99820.02
2019-06-10T21:16:39.926Z,99808.11
2019-06-10T21:19:10.592Z,99816.63
2019-06-10T21:21:45.096Z,99835.01
2019-06-10T21:24:13.649Z,99850.16
2019-06-10T21:26:47.073Z,99827.41
2019-06-10T21:29:17.402Z,99830.98
2019-06-10T21:31:49.921Z,99843.34
2019-06-10T21:34:22.385Z,99840.03
2019-06-10T21:36:54.362Z,99874.53
2019-06-10T21:39:26.059Z,99908.23
2019-06-10T21:41:56.699Z,99859.97
2019-06-10T21:44:27.699Z,99906.16
2019-06-10T21:46:58.657Z,99906.86
2019-06-10T21:49:32.101Z,99910.26
2019-06-10T21:52:02.828Z,99891.20
2019-06-10T21:54:33.759Z,99879.83
2019-06-10T21:57:04.519Z,99852.97
2019-06-10T21:59:35.169Z,99844.41
2019-06-10T22:02:06.119Z,99844.27
2019-06-10T22:04:38.099Z,99834.17
2019-06-10T22:07:09.025Z,99831.06
2019-06-10T22:09:39.726Z,99814.41
2019-06-10T22:12:11.991Z,99825.55
2019-06-10T22:14:44.158Z,99842.39
2019-06-10T22:17:15.025Z,99854.48
2019-06-10T22:19:46.535Z,99878.79
2019-06-10T22:22:17.610Z,99917.20
2019-06-10T22:24:48.869Z,99941.32
2019-06-10T22:27:22.256Z,99889.66
2019-06-10T22:29:54.283Z,99877.73
2019-06-10T22:32:25.034Z,99868.30
2019-06-10T22:34:57.010Z,99877.77
2019-06-10T22:37:28.150Z,99889.89
2019-06-10T22:39:59.520Z,99888.27
2019-06-10T22:42:32.430Z,99874.77
2019-06-10T22:45:03.796Z,99868.23
2019-06-10T22:47:36.268Z,99907.98
2019-06-10T22:50:07.984Z,99931.95
2019-06-10T22:52:38.668Z,99933.02
2019-06-10T22:55:10.189Z,99899.11
2019-06-10T22:57:43.953Z,99866.20
2019-06-10T23:00:14.640Z,99825.72
2019-06-10T23:02:45.626Z,99793.48
2019-06-10T23:05:17.443Z,99757.34
2019-06-10T23:07:48.564Z,99731.55
2019-06-10T23:10:19.231Z,99749.09
2019-06-10T23:12:51.278Z,99768.45
2019-06-10T23:15:23.454Z,99744.63
2019-06-10T23:17:56.939Z,99749.34
2019-06-10T23:20:27.217Z,99729.01
2019-06-10T23:22:59.149Z,99735.81
2019-06-10T23:25:32.513Z,99736.20
2019-06-10T23:28:02.851Z,99704.21
2019-06-10T23:30:33.767Z,99748.47
2019-06-10T23:33:04.838Z,99771.88
2019-06-10T23:35:35.783Z,99787.34
2019-06-10T23:38:06.444Z,99805.44
2019-06-10T23:40:37.429Z,99816.62
2019-06-10T23:43:08.379Z,99819.14
2019-06-10T23:45:39.097Z,99822.12
2019-06-10T23:48:10.026Z,99815.94
2019-06-10T23:50:43.538Z,99798.33
2019-06-10T23:53:13.464Z,99785.30
2019-06-10T23:55:44.350Z,99786.55
2019-06-10T23:58:15.275Z,99772.71
